sensor_id;sensor_type;location;lat;lon;timestamp;pressure;altitude;pressure_sealevel;temperature;humidity
56992;BME280;42885;49.754;18.636;2023-05-17T00:00:31;97886.62;;;16.36;100.00
56992;BME280;42885;49.754;18.636;2023-05-17T00:03:03;97886.62;;;16.36;100.00
56992;BME280;42885;49.754;18.636;2023-05-17T00:05:34;97874.37;;;16.45;100.00
56992;BME280;42885;49.754;18.636;2023-05-17T00:08:05;97886.95;;;16.28;100.00
56992;BME280;42885;49.754;18.636;2023-05-17T00:10:36;97889.11;;;16.18;100.00
56992;BME280;42885;49.754;18.636;2023-05-17T00:13:07;97899.81;;;16.27;100.00
56992;BME280;42885;49.754;18.636;2023-05-17T00:15:38;97895.58;;;16.40;100.00
56992;BME280;42885;49.754;18.636;2023-05-17T00:18:09;97905.02;;;16.32;100.00
56992;BME280;42885;49.754;18.636;2023-05-17T00:20:40;97893.70;;;16.36;100.00
56992;BME280;42885;49.754;18.636;2023-05-17T00:23:11;97898.69;;;16.39;100.00
56992;BME280;42885;49.754;18.636;2023-05-17T00:25:41;97894.19;;;16.26;100.00
56992;BME280;42885;49.754;18.636;2023-05-17T00:28:13;97895.13;;;15.95;100.00
56992;BME280;42885;49.754;18.636;2023-05-17T00:30:45;97905.97;;;16.02;100.00
56992;BME280;42885;49.754;18.636;2023-05-17T00:33:17;97907.16;;;16.03;100.00
56992;BME280;42885;49.754;18.636;2023-05-17T00:35:48;97915.97;;;15.98;100.00
56992;BME280;42885;49.754;18.636;2023-05-17T00:38:19;97917.72;;;16.13;100.00
56992;BME280;42885;49.754;18.636;2023-05-17T00:40:50;97911.89;;;16.19;100.00
56992;BME280;42885;49.754;18.636;2023-05-17T00:43:22;97911.89;;;16.19;100.00
56992;BME280;42885;49.754;18.636;2023-05-17T00:45:54;97894.73;;;16.19;100.00
56992;BME280;42885;49.754;18.636;2023-05-17T00:48:28;97869.78;;;15.98;100.00
56992;BME280;42885;49.754;18.636;2023-05-17T00:50:58;97876.89;;;15.82;100.00
56992;BME280;42885;49.754;18.636;2023-05-17T00:53:29;97899.20;;;16.48;100.00
56992;BME280;42885;49.754;18.636;2023-05-17T00:56:00;97909.98;;;16.06;100.00
56992;BME280;42885;49.754;18.636;2023-05-17T00:58:31;97904.02;;;16.04;100.00
56992;BME280;42885;49.754;18.636;2023-05-17T01:01:02;97894.98;;;15.96;100.00
56992;BME280;42885;49.754;18.636;2023-05-17T01:03:34;97899.50;;;15.75;100.00
56992;BME280;42885;49.754;18.636;2023-05-17T01:06:05;97898.41;;;15.87;100.00
56992;BME280;42885;49.754;18.636;2023-05-17T01:08:38;97898.27;;;16.04;100.00
56992;BME280;42885;49.754;18.636;2023-05-17T01:16:32;97879.90;;;15.93;100.00
56992;BME280;42885;49.754;18.636;2023-05-17T01:19:16;97893.81;;;15.89;100.00
56992;BME280;42885;49.754;18.636;2023-05-17T01:21:56;97898.34;;;15.83;100.00
56992;BME280;42885;49.754;18.636;2023-05-17T01:24:47;97898.34;;;15.83;100.00
56992;BME280;42885;49.754;18.636;2023-05-17T01:27:14;97913.77;;;15.88;100.00
56992;BME280;42885;49.754;18.636;2023-05-17T01:29:46;97911.52;;;16.08;100.00
56992;BME280;42885;49.754;18.636;2023-05-17T01:32:19;97913.41;;;16.12;100.00
56992;BME280;42885;49.754;18.636;2023-05-17T01:34:53;97918.19;;;15.87;100.00
56992;BME280;42885;49.754;18.636;2023-05-17T01:37:24;97919.64;;;15.91;100.00
56992;BME280;42885;49.754;18.636;2023-05-17T01:39:54;97913.00;;;16.07;100.00
56992;BME280;42885;49.754;18.636;2023-05-17T01:42:28;97917.36;;;15.61;100.00
56992;BME280;42885;49.754;18.636;2023-05-17T01:45:25;97917.19;;;15.53;100.00
56992;BME280;42885;49.754;18.636;2023-05-17T01:47:55;97915.34;;;15.59;100.00
56992;BME280;42885;49.754;18.636;2023-05-17T01:50:28;97912.48;;;15.57;100.00
56992;BME280;42885;49.754;18.636;2023-05-17T01:53:08;97925.85;;;15.49;100.00
56992;BME280;42885;49.754;18.636;2023-05-17T01:55:43;97931.62;;;15.49;100.00
56992;BME280;42885;49.754;18.636;2023-05-17T01:58:15;97932.61;;;15.58;100.00
56992;BME280;42885;49.754;18.636;2023-05-17T02:00:48;97929.75;;;15.55;100.00
56992;BME280;42885;49.754;18.636;2023-05-17T02:03:21;97940.53;;;15.58;100.00
56992;BME280;42885;49.754;18.636;2023-05-17T02:05:54;97938.98;;;15.71;100.00
56992;BME280;42885;49.754;18.636;2023-05-17T02:08:24;97941.21;;;15.75;100.00
56992;BME280;42885;49.754;18.636;2023-05-17T02:10:55;97937.59;;;15.51;100.00
56992;BME280;42885;49.754;18.636;2023-05-17T02:13:26;97931.70;;;15.37;100.00
56992;BME280;42885;49.754;18.636;2023-05-17T02:16:01;97934.21;;;15.39;100.00
56992;BME280;42885;49.754;18.636;2023-05-17T02:18:32;97944.98;;;15.26;100.00
56992;BME280;42885;49.754;18.636;2023-05-17T02:21:04;97946.08;;;15.39;100.00
56992;BME280;42885;49.754;18.636;2023-05-17T02:23:35;97947.52;;;15.53;100.00
56992;BME280;42885;49.754;18.636;2023-05-17T02:26:06;97943.27;;;15.46;100.00
56992;BME280;42885;49.754;18.636;2023-05-17T02:28:37;97935.41;;;15.40;100.00
56992;BME280;42885;49.754;18.636;2023-05-17T02:31:08;97937.89;;;15.42;100.00
56992;BME280;42885;49.754;18.636;2023-05-17T02:33:39;97935.77;;;15.51;100.00
56992;BME280;42885;49.754;18.636;2023-05-17T02:36:10;97940.53;;;15.58;100.00
56992;BME280;42885;49.754;18.636;2023-05-17T02:38:41;97938.98;;;15.55;100.00
56992;BME280;42885;49.754;18.636;2023-05-17T02:41:12;97941.63;;;15.55;100.00
56992;BME280;42885;49.754;18.636;2023-05-17T02:43:42;97945.05;;;15.61;100.00
56992;BME280;42885;49.754;18.636;2023-05-17T02:46:14;97948.55;;;15.62;100.00
56992;BME280;42885;49.754;18.636;2023-05-17T02:48:46;97951.92;;;15.58;100.00
56992;BME280;42885;49.754;18.636;2023-05-17T02:51:17;97946.42;;;15.55;100.00
56992;BME280;42885;49.754;18.636;2023-05-17T02:53:49;97946.47;;;15.65;100.00
56992;BME280;42885;49.754;18.636;2023-05-17T02:56:20;97947.22;;;15.62;100.00
56992;BME280;42885;49.754;18.636;2023-05-17T02:58:51;97951.88;;;15.48;100.00
56992;BME280;42885;49.754;18.636;2023-05-17T03:01:22;97950.45;;;15.60;100.00
56992;BME280;42885;49.754;18.636;2023-05-17T03:03:53;97945.86;;;15.52;100.00
56992;BME280;42885;49.754;18.636;2023-05-17T03:06:25;97937.20;;;15.55;100.00
56992;BME280;42885;49.754;18.636;2023-05-17T03:08:56;97947.69;;;15.46;100.00
56992;BME280;42885;49.754;18.636;2023-05-17T03:11:27;97948.58;;;15.25;100.00
56992;BME280;42885;49.754;18.636;2023-05-17T03:13:59;97938.62;;;15.23;100.00
56992;BME280;42885;49.754;18.636;2023-05-17T03:16:32;97948.35;;;15.22;100.00
56992;BME280;42885;49.754;18.636;2023-05-17T03:19:03;97955.84;;;15.11;100.00
56992;BME280;42885;49.754;18.636;2023-05-17T03:21:34;97962.39;;;15.17;100.00
56992;BME280;42885;49.754;18.636;2023-05-17T03:24:05;97973.09;;;15.16;100.00
56992;BME280;42885;49.754;18.636;2023-05-17T03:26:38;97971.20;;;15.06;100.00
56992;BME280;42885;49.754;18.636;2023-05-17T03:29:11;97975.76;;;15.25;100.00
56992;BME280;42885;49.754;18.636;2023-05-17T03:31:43;97975.76;;;15.25;100.00
56992;BME280;42885;49.754;18.636;2023-05-17T03:34:16;97979.75;;;15.20;100.00
56992;BME280;42885;49.754;18.636;2023-05-17T03:36:47;97984.35;;;15.33;100.00
56992;BME280;42885;49.754;18.636;2023-05-17T03:39:18;97985.33;;;15.26;100.00
56992;BME280;42885;49.754;18.636;2023-05-17T03:41:50;97992.70;;;15.17;100.00
56992;BME280;42885;49.754;18.636;2023-05-17T03:44:21;97998.20;;;15.20;100.00
56992;BME280;42885;49.754;18.636;2023-05-17T03:46:53;98000.34;;;15.88;100.00
56992;BME280;42885;49.754;18.636;2023-05-17T03:49:25;98003.79;;;15.26;100.00
56992;BME280;42885;49.754;18.636;2023-05-17T03:51:56;98009.30;;;15.08;100.00
56992;BME280;42885;49.754;18.636;2023-05-17T03:54:27;98008.86;;;14.97;100.00
56992;BME280;42885;49.754;18.636;2023-05-17T03:56:58;98019.75;;;15.04;100.00
56992;BME280;42885;49.754;18.636;2023-05-17T03:59:29;98012.55;;;14.73;100.00
56992;BME280;42885;49.754;18.636;2023-05-17T04:02:00;98018.17;;;14.80;100.00
56992;BME280;42885;49.754;18.636;2023-05-17T04:04:32;98023.56;;;14.78;100.00
56992;BME280;42885;49.754;18.636;2023-05-17T04:07:03;98019.42;;;14.58;100.00
56992;BME280;42885;49.754;18.636;2023-05-17T04:09:34;98026.06;;;14.68;100.00
56992;BME280;42885;49.754;18.636;2023-05-17T04:12:05;98034.92;;;14.84;100.00
56992;BME280;42885;49.754;18.636;2023-05-17T04:14:37;98038.42;;;14.68;100.00
56992;BME280;42885;49.754;18.636;2023-05-17T04:17:09;98048.41;;;14.53;100.00
56992;BME280;42885;49.754;18.636;2023-05-17T04:19:40;98048.73;;;14.59;100.00
56992;BME280;42885;49.754;18.636;2023-05-17T04:22:11;98050.73;;;14.67;100.00
56992;BME280;42885;49.754;18.636;2023-05-17T04:24:42;98048.84;;;14.75;100.00
56992;BME280;42885;49.754;18.636;2023-05-17T04:27:13;98055.08;;;14.57;100.00
56992;BME280;42885;49.754;18.636;2023-05-17T04:29:45;98062.02;;;14.58;100.00
56992;BME280;42885;49.754;18.636;2023-05-17T04:32:16;98063.97;;;14.50;100.00
56992;BME280;42885;49.754;18.636;2023-05-17T04:34:47;98062.20;;;14.34;100.00
56992;BME280;42885;49.754;18.636;2023-05-17T04:37:18;98063.70;;;14.53;100.00
56992;BME280;42885;49.754;18.636;2023-05-17T04:39:51;98070.90;;;14.51;100.00
56992;BME280;42885;49.754;18.636;2023-05-17T04:42:23;98070.20;;;14.32;100.00
56992;BME280;42885;49.754;18.636;2023-05-17T04:44:55;98070.59;;;14.16;100.00
56992;BME280;42885;49.754;18.636;2023-05-17T04:47:26;98077.77;;;14.25;100.00
56992;BME280;42885;49.754;18.636;2023-05-17T04:49:57;98073.22;;;14.22;100.00
56992;BME280;42885;49.754;18.636;2023-05-17T04:52:29;98078.95;;;14.21;100.00
56992;BME280;42885;49.754;18.636;2023-05-17T04:55:00;98078.97;;;14.04;100.00
56992;BME280;42885;49.754;18.636;2023-05-17T04:57:32;98079.80;;;14.16;100.00
56992;BME280;42885;49.754;18.636;2023-05-17T05:00:05;98088.86;;;14.23;100.00
56992;BME280;42885;49.754;18.636;2023-05-17T05:02:39;98092.81;;;14.23;100.00
56992;BME280;42885;49.754;18.636;2023-05-17T05:05:11;98105.28;;;14.10;100.00
56992;BME280;42885;49.754;18.636;2023-05-17T05:07:44;98105.98;;;14.06;100.00
56992;BME280;42885;49.754;18.636;2023-05-17T05:10:16;98111.36;;;13.99;100.00
56992;BME280;42885;49.754;18.636;2023-05-17T05:12:47;98113.39;;;13.84;100.00
56992;BME280;42885;49.754;18.636;2023-05-17T05:15:18;98124.30;;;14.08;100.00
56992;BME280;42885;49.754;18.636;2023-05-17T05:17:52;98129.67;;;14.00;100.00
56992;BME280;42885;49.754;18.636;2023-05-17T05:20:23;98132.66;;;14.13;100.00
56992;BME280;42885;49.754;18.636;2023-05-17T05:22:53;98141.02;;;14.01;100.00
56992;BME280;42885;49.754;18.636;2023-05-17T05:25:27;98146.98;;;13.80;100.00
56992;BME280;42885;49.754;18.636;2023-05-17T05:28:01;98148.66;;;13.87;100.00
56992;BME280;42885;49.754;18.636;2023-05-17T05:30:32;98155.66;;;13.63;100.00
56992;BME280;42885;49.754;18.636;2023-05-17T05:33:04;98151.47;;;13.61;100.00
56992;BME280;42885;49.754;18.636;2023-05-17T05:35:35;98159.62;;;13.69;100.00
56992;BME280;42885;49.754;18.636;2023-05-17T05:38:06;98168.56;;;13.61;100.00
56992;BME280;42885;49.754;18.636;2023-05-17T05:40:37;98177.17;;;13.69;100.00
56992;BME280;42885;49.754;18.636;2023-05-17T05:43:08;98175.38;;;13.58;100.00
56992;BME280;42885;49.754;18.636;2023-05-17T05:45:39;98183.88;;;13.67;100.00
56992;BME280;42885;49.754;18.636;2023-05-17T05:48:12;98188.03;;;13.64;100.00
56992;BME280;42885;49.754;18.636;2023-05-17T05:50:43;98188.61;;;13.51;100.00
56992;BME280;42885;49.754;18.636;2023-05-17T05:53:15;98179.87;;;13.50;100.00
56992;BME280;42885;49.754;18.636;2023-05-17T05:55:48;98194.43;;;13.48;100.00
56992;BME280;42885;49.754;18.636;2023-05-17T05:58:19;98193.56;;;13.42;100.00
56992;BME280;42885;49.754;18.636;2023-05-17T06:00:51;98194.52;;;13.41;100.00
56992;BME280;42885;49.754;18.636;2023-05-17T06:03:23;98195.88;;;13.47;100.00
56992;BME280;42885;49.754;18.636;2023-05-17T06:05:54;98196.83;;;13.46;100.00
56992;BME280;42885;49.754;18.636;2023-05-17T06:08:25;98207.76;;;13.40;100.00
56992;BME280;42885;49.754;18.636;2023-05-17T06:10:56;98209.28;;;13.49;100.00
56992;BME280;42885;49.754;18.636;2023-05-17T06:13:27;98211.69;;;13.58;100.00
56992;BME280;42885;49.754;18.636;2023-05-17T06:15:58;98211.55;;;13.35;100.00
56992;BME280;42885;49.754;18.636;2023-05-17T06:18:29;98218.25;;;13.34;100.00
56992;BME280;42885;49.754;18.636;2023-05-17T06:21:00;98207.20;;;13.23;100.00
56992;BME280;42885;49.754;18.636;2023-05-17T06:23:31;98204.08;;;13.24;100.00
56992;BME280;42885;49.754;18.636;2023-05-17T06:26:03;98210.46;;;13.51;100.00
56992;BME280;42885;49.754;18.636;2023-05-17T06:28:36;98215.47;;;13.30;100.00
56992;BME280;42885;49.754;18.636;2023-05-17T06:31:07;98221.33;;;13.52;100.00
56992;BME280;42885;49.754;18.636;2023-05-17T06:33:38;98223.84;;;13.48;100.00
56992;BME280;42885;49.754;18.636;2023-05-17T06:36:09;98218.63;;;13.41;100.00
56992;BME280;42885;49.754;18.636;2023-05-17T06:38:40;98221.31;;;13.46;100.00
56992;BME280;42885;49.754;18.636;2023-05-17T06:41:11;98222.65;;;13.52;100.00
56992;BME280;42885;49.754;18.636;2023-05-17T06:43:42;98223.19;;;13.44;100.00
56992;BME280;42885;49.754;18.636;2023-05-17T06:46:13;98226.88;;;13.42;100.00
56992;BME280;42885;49.754;18.636;2023-05-17T06:48:44;98225.05;;;13.49;100.00
56992;BME280;42885;49.754;18.636;2023-05-17T06:51:15;98237.50;;;13.40;100.00
56992;BME280;42885;49.754;18.636;2023-05-17T06:53:46;98249.22;;;13.42;100.00
56992;BME280;42885;49.754;18.636;2023-05-17T06:56:17;98255.54;;;13.39;100.00
56992;BME280;42885;49.754;18.636;2023-05-17T06:58:48;98250.52;;;13.36;100.00
56992;BME280;42885;49.754;18.636;2023-05-17T07:01:19;98260.00;;;13.44;100.00
56992;BME280;42885;49.754;18.636;2023-05-17T07:03:51;98258.97;;;13.47;100.00
56992;BME280;42885;49.754;18.636;2023-05-17T07:06:22;98265.56;;;13.34;100.00
56992;BME280;42885;49.754;18.636;2023-05-17T07:08:53;98261.77;;;13.44;100.00
56992;BME280;42885;49.754;18.636;2023-05-17T07:11:24;98261.92;;;13.67;100.00
56992;BME280;42885;49.754;18.636;2023-05-17T07:13:55;98255.29;;;13.49;100.00
56992;BME280;42885;49.754;18.636;2023-05-17T07:16:26;98258.12;;;13.46;100.00
56992;BME280;42885;49.754;18.636;2023-05-17T07:18:57;98261.01;;;13.49;100.00
56992;BME280;42885;49.754;18.636;2023-05-17T07:21:28;98272.04;;;13.54;100.00
56992;BME280;42885;49.754;18.636;2023-05-17T07:24:00;98274.96;;;13.31;100.00
56992;BME280;42885;49.754;18.636;2023-05-17T07:26:31;98286.07;;;13.29;100.00
56992;BME280;42885;49.754;18.636;2023-05-17T07:29:02;98295.89;;;13.32;100.00
56992;BME280;42885;49.754;18.636;2023-05-17T07:31:33;98296.13;;;13.29;100.00
56992;BME280;42885;49.754;18.636;2023-05-17T07:34:04;98297.17;;;13.27;100.00
56992;BME280;42885;49.754;18.636;2023-05-17T07:36:35;98304.44;;;13.23;100.00
56992;BME280;42885;49.754;18.636;2023-05-17T07:39:06;98309.22;;;13.42;100.00
56992;BME280;42885;49.754;18.636;2023-05-17T07:41:37;98312.74;;;13.35;100.00
56992;BME280;42885;49.754;18.636;2023-05-17T07:44:09;98314.84;;;13.43;100.00
56992;BME280;42885;49.754;18.636;2023-05-17T07:46:41;98311.22;;;13.52;100.00
56992;BME280;42885;49.754;18.636;2023-05-17T07:49:13;98313.84;;;13.52;100.00
56992;BME280;42885;49.754;18.636;2023-05-17T07:51:44;98318.34;;;13.62;100.00
56992;BME280;42885;49.754;18.636;2023-05-17T07:54:25;98323.54;;;13.57;100.00
56992;BME280;42885;49.754;18.636;2023-05-17T07:56:56;98325.94;;;13.79;100.00
56992;BME280;42885;49.754;18.636;2023-05-17T07:59:28;98332.56;;;13.66;100.00
56992;BME280;42885;49.754;18.636;2023-05-17T08:01:59;98335.72;;;13.71;100.00
56992;BME280;42885;49.754;18.636;2023-05-17T08:04:30;98333.03;;;13.65;100.00
56992;BME280;42885;49.754;18.636;2023-05-17T08:07:01;98327.83;;;13.71;100.00
56992;BME280;42885;49.754;18.636;2023-05-17T08:09:32;98335.30;;;13.64;100.00
56992;BME280;42885;49.754;18.636;2023-05-17T08:12:03;98338.09;;;13.68;100.00
56992;BME280;42885;49.754;18.636;2023-05-17T08:14:34;98330.30;;;13.67;100.00
56992;BME280;42885;49.754;18.636;2023-05-17T08:17:05;98333.75;;;13.61;100.00
56992;BME280;42885;49.754;18.636;2023-05-17T08:19:37;98346.98;;;13.79;100.00
56992;BME280;42885;49.754;18.636;2023-05-17T08:22:08;98345.25;;;13.90;100.00
56992;BME280;42885;49.754;18.636;2023-05-17T08:24:40;98337.70;;;13.61;100.00
56992;BME280;42885;49.754;18.636;2023-05-17T08:27:11;98342.13;;;13.67;100.00
56992;BME280;42885;49.754;18.636;2023-05-17T08:29:43;98340.72;;;13.68;100.00
56992;BME280;42885;49.754;18.636;2023-05-17T08:32:14;98338.75;;;13.59;100.00
56992;BME280;42885;49.754;18.636;2023-05-17T08:34:44;98340.22;;;13.69;100.00
56992;BME280;42885;49.754;18.636;2023-05-17T08:37:17;98334.45;;;13.82;100.00
56992;BME280;42885;49.754;18.636;2023-05-17T08:39:48;98349.09;;;13.92;100.00
56992;BME280;42885;49.754;18.636;2023-05-17T08:42:21;98350.20;;;13.76;100.00
56992;BME280;42885;49.754;18.636;2023-05-17T08:44:55;98346.48;;;13.55;100.00
56992;BME280;42885;49.754;18.636;2023-05-17T08:47:27;98353.14;;;13.66;100.00
56992;BME280;42885;49.754;18.636;2023-05-17T08:50:00;98355.44;;;13.71;100.00
56992;BME280;42885;49.754;18.636;2023-05-17T08:52:34;98363.37;;;13.58;100.00
56992;BME280;42885;49.754;18.636;2023-05-17T08:55:08;98369.11;;;13.82;100.00
56992;BME280;42885;49.754;18.636;2023-05-17T08:57:40;98372.97;;;13.89;100.00
56992;BME280;42885;49.754;18.636;2023-05-17T09:00:11;98377.92;;;13.75;100.00
56992;BME280;42885;49.754;18.636;2023-05-17T09:02:45;98383.86;;;13.90;100.00
56992;BME280;42885;49.754;18.636;2023-05-17T09:05:17;98375.66;;;13.76;100.00
56992;BME280;42885;49.754;18.636;2023-05-17T09:07:48;98376.70;;;13.73;100.00
56992;BME280;42885;49.754;18.636;2023-05-17T09:10:19;98375.52;;;13.72;100.00
56992;BME280;42885;49.754;18.636;2023-05-17T09:12:52;98381.25;;;13.71;100.00
56992;BME280;42885;49.754;18.636;2023-05-17T09:15:23;98383.19;;;13.43;100.00
56992;BME280;42885;49.754;18.636;2023-05-17T09:17:56;98376.75;;;13.60;100.00
56992;BME280;42885;49.754;18.636;2023-05-17T09:20:28;98382.92;;;13.72;100.00
56992;BME280;42885;49.754;18.636;2023-05-17T09:23:07;98379.52;;;13.59;100.00
56992;BME280;42885;49.754;18.636;2023-05-17T09:25:45;98380.73;;;13.85;100.00
56992;BME280;42885;49.754;18.636;2023-05-17T09:28:13;98375.63;;;13.70;100.00
56992;BME280;42885;49.754;18.636;2023-05-17T09:30:47;98383.84;;;13.66;100.00
56992;BME280;42885;49.754;18.636;2023-05-17T09:33:20;98387.75;;;13.79;100.00
56992;BME280;42885;49.754;18.636;2023-05-17T09:35:52;98391.63;;;13.86;100.00
56992;BME280;42885;49.754;18.636;2023-05-17T09:38:25;98385.56;;;13.91;100.00
56992;BME280;42885;49.754;18.636;2023-05-17T09:40:56;98390.14;;;13.82;100.00
56992;BME280;42885;49.754;18.636;2023-05-17T09:43:28;98391.08;;;13.75;100.00
56992;BME280;42885;49.754;18.636;2023-05-17T09:45:59;98402.91;;;13.75;100.00
56992;BME280;42885;49.754;18.636;2023-05-17T09:48:30;98403.70;;;13.51;100.00
56992;BME280;42885;49.754;18.636;2023-05-17T09:51:01;98407.06;;;13.27;100.00
56992;BME280;42885;49.754;18.636;2023-05-17T09:53:33;98411.80;;;13.35;100.00
56992;BME280;42885;49.754;18.636;2023-05-17T09:56:11;98414.12;;;13.53;100.00
56992;BME280;42885;49.754;18.636;2023-05-17T09:58:42;98419.27;;;13.41;100.00
56992;BME280;42885;49.754;18.636;2023-05-17T10:01:13;98420.53;;;13.61;100.00
56992;BME280;42885;49.754;18.636;2023-05-17T10:03:44;98426.40;;;13.39;100.00
56992;BME280;42885;49.754;18.636;2023-05-17T10:06:16;98438.14;;;13.15;100.00
56992;BME280;42885;49.754;18.636;2023-05-17T10:08:52;98439.23;;;13.31;100.00
56992;BME280;42885;49.754;18.636;2023-05-17T10:11:29;98433.59;;;13.43;100.00
56992;BME280;42885;49.754;18.636;2023-05-17T10:16:50;98436.36;;;13.41;100.00
56992;BME280;42885;49.754;18.636;2023-05-17T10:19:22;98444.48;;;13.57;100.00
56992;BME280;42885;49.754;18.636;2023-05-17T10:21:54;98441.98;;;13.29;100.00
56992;BME280;42885;49.754;18.636;2023-05-17T10:24:28;98439.04;;;13.34;100.00
56992;BME280;42885;49.754;18.636;2023-05-17T10:27:00;98443.16;;;13.44;100.00
56992;BME280;42885;49.754;18.636;2023-05-17T10:29:32;98444.02;;;13.44;100.00
56992;BME280;42885;49.754;18.636;2023-05-17T10:32:06;98454.48;;;13.39;100.00
56992;BME280;42885;49.754;18.636;2023-05-17T10:34:38;98449.08;;;13.47;100.00
56992;BME280;42885;49.754;18.636;2023-05-17T10:37:12;98450.89;;;13.47;100.00
56992;BME280;42885;49.754;18.636;2023-05-17T10:39:44;98453.05;;;13.40;100.00
56992;BME280;42885;49.754;18.636;2023-05-17T10:42:16;98458.75;;;13.21;100.00
56992;BME280;42885;49.754;18.636;2023-05-17T10:44:48;98464.96;;;13.33;100.00
56992;BME280;42885;49.754;18.636;2023-05-17T10:47:19;98460.84;;;13.42;100.00
56992;BME280;42885;49.754;18.636;2023-05-17T10:49:51;98457.12;;;13.26;100.00
56992;BME280;42885;49.754;18.636;2023-05-17T10:52:22;98457.12;;;13.26;100.00
56992;BME280;42885;49.754;18.636;2023-05-17T10:54:55;98466.92;;;13.49;100.00
56992;BME280;42885;49.754;18.636;2023-05-17T10:57:36;98464.78;;;13.42;100.00
56992;BME280;42885;49.754;18.636;2023-05-17T11:00:07;98465.64;;;13.42;100.00
56992;BME280;42885;49.754;18.636;2023-05-17T11:02:41;98463.30;;;13.45;100.00
56992;BME280;42885;49.754;18.636;2023-05-17T11:05:25;98468.99;;;13.44;100.00
56992;BME280;42885;49.754;18.636;2023-05-17T11:08:11;98469.58;;;13.42;100.00
56992;BME280;42885;49.754;18.636;2023-05-17T11:11:11;98465.70;;;14.11;100.00
56992;BME280;42885;49.754;18.636;2023-05-17T11:16:22;98470.45;;;13.35;100.00
56992;BME280;42885;49.754;18.636;2023-05-17T11:18:54;98473.03;;;13.30;100.00
56992;BME280;42885;49.754;18.636;2023-05-17T11:21:27;98465.20;;;13.35;100.00
56992;BME280;42885;49.754;18.636;2023-05-17T11:24:01;98466.34;;;13.52;100.00
56992;BME280;42885;49.754;18.636;2023-05-17T11:26:39;98471.45;;;13.27;100.00
56992;BME280;42885;49.754;18.636;2023-05-17T11:29:12;98475.39;;;13.40;100.00
56992;BME280;42885;49.754;18.636;2023-05-17T11:31:44;98484.40;;;13.43;100.00
56992;BME280;42885;49.754;18.636;2023-05-17T11:34:17;98480.82;;;13.44;100.00
56992;BME280;42885;49.754;18.636;2023-05-17T11:36:50;98478.97;;;13.39;100.00
56992;BME280;42885;49.754;18.636;2023-05-17T11:39:23;98484.72;;;13.26;100.00
56992;BME280;42885;49.754;18.636;2023-05-17T11:41:55;98491.43;;;13.17;100.00
56992;BME280;42885;49.754;18.636;2023-05-17T11:44:31;98491.40;;;12.91;100.00
56992;BME280;42885;49.754;18.636;2023-05-17T11:47:04;98492.64;;;13.05;100.00
56992;BME280;42885;49.754;18.636;2023-05-17T11:49:38;98498.17;;;13.21;100.00
56992;BME280;42885;49.754;18.636;2023-05-17T11:52:10;98504.47;;;13.18;100.00
56992;BME280;42885;49.754;18.636;2023-05-17T11:54:41;98507.34;;;13.67;100.00
56992;BME280;42885;49.754;18.636;2023-05-17T11:57:14;98511.87;;;13.19;100.00
56992;BME280;42885;49.754;18.636;2023-05-17T11:59:46;98516.38;;;13.04;100.00
56992;BME280;42885;49.754;18.636;2023-05-17T12:02:31;98507.47;;;13.19;100.00
56992;BME280;42885;49.754;18.636;2023-05-17T12:05:02;98523.27;;;13.12;100.00
56992;BME280;42885;49.754;18.636;2023-05-17T12:07:33;98521.88;;;12.93;100.00
56992;BME280;42885;49.754;18.636;2023-05-17T12:10:05;98525.02;;;12.99;100.00
56992;BME280;42885;49.754;18.636;2023-05-17T12:12:37;98536.17;;;12.82;100.00
56992;BME280;42885;49.754;18.636;2023-05-17T12:15:08;98539.20;;;13.03;100.00
56992;BME280;42885;49.754;18.636;2023-05-17T12:17:42;98539.91;;;12.92;100.00
56992;BME280;42885;49.754;18.636;2023-05-17T12:20:15;98547.75;;;13.00;100.00
56992;BME280;42885;49.754;18.636;2023-05-17T12:22:54;98550.07;;;12.84;100.00
56992;BME280;42885;49.754;18.636;2023-05-17T12:25:27;98552.80;;;13.03;100.00
56992;BME280;42885;49.754;18.636;2023-05-17T12:28:17;98549.00;;;13.07;100.00
56992;BME280;42885;49.754;18.636;2023-05-17T12:30:54;98552.45;;;12.94;100.00
56992;BME280;42885;49.754;18.636;2023-05-17T12:33:31;98560.89;;;13.00;100.00
56992;BME280;42885;49.754;18.636;2023-05-17T12:36:03;98557.52;;;12.90;100.00
56992;BME280;42885;49.754;18.636;2023-05-17T12:38:36;98558.84;;;12.90;100.00
56992;BME280;42885;49.754;18.636;2023-05-17T12:41:10;98556.45;;;13.00;100.00
56992;BME280;42885;49.754;18.636;2023-05-17T12:43:42;98573.47;;;12.94;100.00
56992;BME280;42885;49.754;18.636;2023-05-17T12:46:17;98563.98;;;13.66;100.00
56992;BME280;42885;49.754;18.636;2023-05-17T12:48:52;98567.34;;;12.74;100.00
56992;BME280;42885;49.754;18.636;2023-05-17T12:51:23;98571.73;;;12.88;100.00
56992;BME280;42885;49.754;18.636;2023-05-17T12:53:55;98573.38;;;12.96;100.00
56992;BME280;42885;49.754;18.636;2023-05-17T12:56:29;98573.84;;;12.96;100.00
56992;BME280;42885;49.754;18.636;2023-05-17T12:59:13;98571.40;;;13.00;100.00
56992;BME280;42885;49.754;18.636;2023-05-17T13:01:55;98580.04;;;12.94;100.00
56992;BME280;42885;49.754;18.636;2023-05-17T13:04:32;98576.42;;;12.83;100.00
56992;BME280;42885;49.754;18.636;2023-05-17T13:07:05;98583.45;;;12.82;100.00
56992;BME280;42885;49.754;18.636;2023-05-17T13:09:47;98578.94;;;12.91;100.00
56992;BME280;42885;49.754;18.636;2023-05-17T13:12:20;98576.13;;;13.07;100.00
56992;BME280;42885;49.754;18.636;2023-05-17T13:14:52;98574.30;;;13.15;100.00
56992;BME280;42885;49.754;18.636;2023-05-17T13:17:26;98575.44;;;12.71;100.00